createdAt,value
2022-11-02T00:00:42.192Z,86.66
2022-11-02T00:01:44.787Z,86.29
2022-11-02T00:02:46.763Z,86.58
2022-11-02T00:03:48.946Z,86.68
2022-11-02T00:04:50.755Z,86.54
2022-11-02T00:05:52.567Z,86.18
2022-11-02T00:06:54.419Z,86.53
2022-11-02T00:07:56.234Z,86.87
2022-11-02T00:08:58.029Z,86.85
2022-11-02T00:09:59.845Z,86.67
2022-11-02T00:11:01.914Z,86.87
2022-11-02T00:12:03.799Z,86.58
2022-11-02T00:13:06.065Z,86.78
2022-11-02T00:14:08.370Z,86.52
2022-11-02T00:15:10.458Z,86.24
2022-11-02T00:16:14.926Z,86.61
2022-11-02T00:17:16.813Z,86.23
2022-11-02T00:18:18.772Z,86.34
2022-11-02T00:19:20.558Z,86.70
2022-11-02T00:20:22.390Z,86.37
2022-11-02T00:21:25.593Z,86.81
2022-11-02T00:22:27.493Z,86.70
2022-11-02T00:23:29.922Z,86.64
2022-11-02T00:24:33.987Z,86.72
2022-11-02T00:25:38.173Z,86.36
2022-11-02T00:26:40.131Z,86.58
2022-11-02T00:27:42.879Z,86.26
2022-11-02T00:28:45.044Z,86.30
2022-11-02T00:29:46.850Z,86.06
2022-11-02T00:30:48.713Z,86.19
2022-11-02T00:31:51.149Z,86.35
2022-11-02T00:32:52.991Z,86.24
2022-11-02T00:33:54.825Z,86.62
2022-11-02T00:34:56.650Z,86.63
2022-11-02T00:35:58.952Z,86.22
2022-11-02T00:37:00.865Z,86.24
2022-11-02T00:38:03.066Z,86.40
2022-11-02T00:39:05.314Z,86.89
2022-11-02T00:40:07.423Z,86.39
2022-11-02T00:41:09.250Z,86.65
2022-11-02T00:42:11.565Z,86.87
2022-11-02T00:43:13.419Z,87.31
2022-11-02T00:44:15.281Z,87.18
2022-11-02T00:45:17.676Z,87.05
2022-11-02T00:46:20.493Z,86.46
2022-11-02T00:47:22.487Z,86.31
2022-11-02T00:48:24.369Z,86.66
2022-11-02T00:49:26.210Z,86.48
2022-11-02T00:50:27.944Z,86.87
2022-11-02T00:51:29.738Z,86.82
2022-11-02T00:52:31.941Z,86.33
2022-11-02T00:53:33.747Z,86.38
2022-11-02T00:54:35.750Z,86.32
2022-11-02T00:55:37.558Z,86.90
2022-11-02T00:56:39.489Z,86.80
2022-11-02T00:57:41.713Z,86.72
2022-11-02T00:58:43.526Z,86.49
2022-11-02T00:59:45.320Z,86.80
2022-11-02T01:00:48.139Z,86.63
2022-11-02T01:01:50.140Z,86.34
2022-11-02T01:02:53.943Z,86.45
2022-11-02T01:03:58.929Z,86.47
2022-11-02T01:05:00.911Z,86.50
2022-11-02T01:06:12.888Z,86.37
2022-11-02T01:07:14.752Z,86.34
2022-11-02T01:08:16.580Z,86.17
2022-11-02T01:09:18.479Z,86.29
2022-11-02T01:10:20.319Z,86.31
2022-11-02T01:11:24.019Z,86.39
2022-11-02T01:12:25.926Z,86.72
2022-11-02T01:13:27.697Z,86.54
2022-11-02T01:14:29.543Z,86.59
2022-11-02T01:15:31.313Z,86.64
2022-11-02T01:16:33.311Z,86.72
2022-11-02T01:17:35.348Z,87.07
2022-11-02T01:18:37.155Z,86.57
2022-11-02T01:19:39.991Z,86.91
2022-11-02T01:20:41.832Z,86.69
2022-11-02T01:21:43.677Z,86.87
2022-11-02T01:22:45.593Z,87.14
2022-11-02T01:23:47.435Z,87.08
2022-11-02T01:24:50.051Z,86.92
2022-11-02T01:25:52.186Z,86.82
2022-11-02T01:26:53.983Z,86.67
2022-11-02T01:27:55.743Z,86.88
2022-11-02T01:28:57.536Z,87.05
2022-11-02T01:29:59.476Z,87.25
2022-11-02T01:31:01.442Z,87.05
2022-11-02T01:32:03.232Z,86.69
2022-11-02T01:33:08.067Z,86.75
2022-11-02T01:34:11.286Z,86.77
2022-11-02T01:35:13.115Z,87.00
2022-11-02T01:36:16.001Z,86.96
2022-11-02T01:37:17.820Z,86.96
2022-11-02T01:38:19.874Z,87.17
2022-11-02T01:39:21.661Z,87.26
2022-11-02T01:40:23.575Z,87.61
2022-11-02T01:41:25.387Z,87.29
2022-11-02T01:42:28.613Z,87.50
2022-11-02T01:43:31.906Z,87.53
2022-11-02T01:44:35.328Z,87.41
2022-11-02T01:45:37.274Z,87.11
2022-11-02T01:46:43.025Z,87.31
2022-11-02T01:47:47.070Z,87.14
2022-11-02T01:49:12.552Z,86.62
2022-11-02T01:50:26.040Z,86.44
2022-11-02T01:51:33.698Z,86.58
2022-11-02T01:52:36.639Z,86.29
2022-11-02T01:53:42.772Z,86.86
2022-11-02T01:54:56.922Z,86.65
2022-11-02T01:55:59.510Z,86.28
2022-11-02T01:57:04.402Z,86.92
2022-11-02T01:58:08.479Z,86.87
2022-11-02T01:59:15.574Z,86.65
2022-11-02T02:00:18.820Z,86.91
2022-11-02T02:01:21.255Z,86.99
2022-11-02T02:02:24.900Z,87.27
2022-11-02T02:03:27.966Z,87.59
2022-11-02T02:04:29.743Z,87.36
2022-11-02T02:05:34.100Z,87.90
2022-11-02T02:06:35.936Z,87.78
2022-11-02T02:07:40.013Z,87.75
2022-11-02T02:08:43.590Z,87.84
2022-11-02T02:09:48.680Z,87.41
2022-11-02T02:10:56.437Z,87.50
2022-11-02T02:11:58.291Z,87.31
2022-11-02T02:13:00.248Z,87.21
2022-11-02T02:14:08.490Z,87.15
2022-11-02T02:15:11.081Z,87.48
2022-11-02T02:16:17.716Z,87.28
2022-11-02T02:17:19.534Z,87.47
2022-11-02T02:18:25.957Z,87.24
2022-11-02T02:19:40.040Z,87.89
2022-11-02T02:20:44.796Z,87.38
2022-11-02T02:21:58.883Z,87.42
2022-11-02T02:23:19.382Z,87.72
2022-11-02T02:24:27.009Z,87.54
2022-11-02T02:25:47.142Z,87.41
2022-11-02T02:27:01.060Z,87.69
2022-11-02T02:28:19.944Z,87.52
2022-11-02T02:29:28.275Z,87.64
2022-11-02T02:30:33.920Z,87.51
2022-11-02T02:31:43.328Z,87.68
2022-11-02T02:32:56.194Z,87.56
2022-11-02T02:34:14.824Z,87.54
2022-11-02T02:35:26.178Z,87.23
2022-11-02T02:38:02.405Z,87.24
2022-11-02T02:39:09.214Z,87.20
2022-11-02T02:40:18.121Z,87.26
2022-11-02T02:41:25.320Z,87.66
2022-11-02T02:42:48.814Z,87.34
2022-11-02T02:43:52.679Z,87.76
2022-11-02T02:45:20.445Z,87.61
2022-11-02T02:46:34.510Z,88.01
2022-11-02T02:47:39.896Z,87.46
2022-11-02T02:48:44.031Z,87.78
2022-11-02T02:49:49.347Z,87.60
2022-11-02T02:50:52.014Z,87.38
2022-11-02T02:51:56.346Z,87.29
2022-11-02T02:53:00.261Z,87.28
2022-11-02T02:54:17.546Z,87.36
2022-11-02T02:55:23.346Z,87.26
2022-11-02T02:56:26.469Z,86.97
2022-11-02T02:57:30.719Z,87.27
2022-11-02T02:58:37.498Z,87.12
2022-11-02T02:59:43.890Z,87.44
2022-11-02T03:00:46.305Z,87.38
2022-11-02T03:01:48.639Z,87.88
2022-11-02T03:03:03.894Z,88.17
2022-11-02T03:04:05.752Z,87.99
2022-11-02T03:05:27.763Z,87.82
2022-11-02T03:06:35.698Z,87.58
2022-11-02T03:07:37.664Z,87.58
2022-11-02T03:08:41.927Z,87.07
2022-11-02T03:09:46.916Z,87.31
2022-11-02T03:10:51.301Z,87.14
2022-11-02T03:12:01.977Z,87.19
2022-11-02T03:13:15.757Z,87.52
2022-11-02T03:14:26.654Z,87.48
2022-11-02T03:15:37.824Z,87.77
2022-11-02T03:16:42.415Z,87.76
2022-11-02T03:17:53.325Z,87.75
2022-11-02T03:19:11.698Z,87.35
2022-11-02T03:20:13.483Z,87.10
2022-11-02T03:21:18.044Z,87.11
2022-11-02T03:22:38.538Z,87.27
2022-11-02T03:24:00.882Z,87.65
2022-11-02T03:25:08.855Z,87.52
2022-11-02T03:26:27.769Z,87.68
2022-11-02T03:27:35.988Z,87.76
2022-11-02T03:28:54.116Z,87.87
2022-11-02T03:30:05.786Z,87.32
2022-11-02T03:31:17.183Z,87.78
2022-11-02T03:32:18.923Z,87.60
2022-11-02T03:33:26.079Z,87.67
2022-11-02T03:34:48.765Z,87.20
2022-11-02T03:36:02.422Z,87.51
2022-11-02T03:37:11.231Z,87.25
2022-11-02T03:38:20.082Z,87.47
2022-11-02T03:39:25.124Z,87.39
2022-11-02T03:40:30.263Z,87.52
2022-11-02T03:41:33.426Z,87.22
2022-11-02T03:42:35.700Z,87.13
2022-11-02T03:43:39.203Z,87.22
2022-11-02T03:44:42.043Z,87.68
2022-11-02T03:45:47.421Z,87.91
2022-11-02T03:46:51.767Z,87.64
2022-11-02T03:47:57.633Z,87.79
2022-11-02T03:49:03.411Z,88.18
2022-11-02T03:50:10.171Z,87.94
2022-11-02T03:51:14.061Z,88.00
2022-11-02T03:52:18.742Z,87.91
2022-11-02T03:53:23.534Z,87.65
2022-11-02T03:54:30.118Z,88.03
2022-11-02T03:55:34.853Z,87.68
2022-11-02T03:56:38.811Z,87.38
2022-11-02T03:57:48.006Z,87.65
2022-11-02T03:58:49.827Z,87.56
2022-11-02T03:59:51.563Z,86.91
2022-11-02T04:01:02.439Z,86.69
2022-11-02T04:02:04.413Z,86.77
2022-11-02T04:03:08.913Z,86.63
2022-11-02T04:04:11.120Z,86.66
2022-11-02T04:05:13.051Z,86.80
2022-11-02T04:06:15.489Z,87.07
2022-11-02T04:07:20.134Z,86.78
2022-11-02T04:08:29.589Z,86.62
2022-11-02T04:09:31.597Z,86.66
2022-11-02T04:10:33.455Z,86.44
2022-11-02T04:11:54.772Z,86.31
2022-11-02T04:13:14.885Z,86.30
2022-11-02T04:14:35.570Z,86.43
2022-11-02T04:15:37.479Z,86.07
2022-11-02T04:16:39.380Z,85.93
2022-11-02T04:17:59.881Z,85.67
2022-11-02T04:19:20.234Z,85.30
2022-11-02T04:20:21.985Z,85.47
2022-11-02T04:21:23.787Z,86.22
2022-11-02T04:22:44.157Z,86.19
2022-11-02T04:24:04.519Z,86.39
2022-11-02T04:25:16.054Z,85.97
2022-11-02T04:26:17.899Z,86.09
2022-11-02T04:27:21.207Z,85.92
2022-11-02T04:28:23.381Z,85.89
2022-11-02T04:29:25.173Z,85.98
2022-11-02T04:30:26.924Z,85.88
2022-11-02T04:31:28.740Z,85.41
2022-11-02T04:32:49.310Z,85.89
2022-11-02T04:33:51.101Z,85.56
2022-11-02T04:34:52.965Z,85.39
2022-11-02T04:35:54.841Z,85.47
2022-11-02T04:36:56.701Z,85.65
2022-11-02T04:38:17.241Z,85.44
2022-11-02T04:39:19.056Z,85.98
2022-11-02T04:40:20.906Z,85.54
2022-11-02T04:41:42.516Z,85.49
2022-11-02T04:42:47.455Z,85.64
2022-11-02T04:43:49.359Z,85.36
2022-11-02T04:44:51.216Z,86.03
2022-11-02T04:45:52.996Z,85.64
2022-11-02T04:46:54.810Z,85.88
2022-11-02T04:48:01.220Z,86.01
2022-11-02T04:49:03.580Z,85.97
2022-11-02T04:50:05.535Z,86.07
2022-11-02T04:51:07.289Z,86.07
2022-11-02T04:52:10.103Z,85.43
2022-11-02T04:53:12.014Z,85.29
2022-11-02T04:54:13.906Z,85.40
2022-11-02T04:55:15.848Z,85.40
2022-11-02T04:56:17.646Z,85.14
2022-11-02T04:57:19.404Z,85.45
2022-11-02T04:58:21.252Z,85.37
2022-11-02T04:59:23.153Z,85.25
2022-11-02T05:00:25.160Z,85.19
2022-11-02T05:01:28.634Z,85.48
2022-11-02T05:02:30.928Z,85.54
2022-11-02T05:03:32.767Z,85.39
2022-11-02T05:04:34.670Z,85.59
2022-11-02T05:05:36.453Z,85.59
2022-11-02T05:06:38.325Z,85.63
2022-11-02T05:07:40.219Z,85.47
2022-11-02T05:08:42.048Z,85.84
2022-11-02T05:09:43.832Z,85.62
2022-11-02T05:10:45.697Z,85.50
2022-11-02T05:11:49.335Z,85.54
2022-11-02T05:12:56.690Z,85.26
2022-11-02T05:13:58.485Z,85.04
2022-11-02T05:15:00.280Z,84.53
2022-11-02T05:16:02.101Z,84.80
2022-11-02T05:17:03.923Z,84.68
2022-11-02T05:18:06.208Z,84.63
2022-11-02T05:19:10.839Z,84.81
2022-11-02T05:20:13.012Z,85.14
2022-11-02T05:21:14.991Z,84.61
2022-11-02T05:22:16.814Z,84.47
2022-11-02T05:23:19.472Z,85.01
2022-11-02T05:24:21.502Z,84.48
2022-11-02T05:25:23.429Z,85.25
2022-11-02T05:26:25.247Z,85.08
2022-11-02T05:27:27.235Z,85.49
2022-11-02T05:28:29.842Z,85.61
2022-11-02T05:29:31.635Z,85.57
2022-11-02T05:30:33.496Z,85.29
2022-11-02T05:31:35.307Z,85.68
2022-11-02T05:32:37.153Z,85.75
2022-11-02T05:33:38.956Z,85.63
2022-11-02T05:34:40.794Z,85.50
2022-11-02T05:35:42.982Z,85.63
2022-11-02T05:36:44.873Z,85.68
2022-11-02T05:37:47.418Z,85.63
2022-11-02T05:38:52.329Z,85.91
2022-11-02T05:39:54.092Z,85.88
2022-11-02T05:40:57.462Z,85.64
2022-11-02T05:41:59.303Z,85.43
2022-11-02T05:43:01.997Z,85.83
2022-11-02T05:44:04.120Z,85.32
2022-11-02T05:45:06.293Z,85.55
2022-11-02T05:46:08.099Z,85.55
2022-11-02T05:47:09.913Z,85.71
2022-11-02T05:48:11.961Z,85.74
2022-11-02T05:49:13.846Z,85.96
2022-11-02T05:50:15.654Z,85.92
2022-11-02T05:51:17.593Z,85.65
2022-11-02T05:52:19.476Z,85.86
2022-11-02T05:53:21.400Z,86.16
2022-11-02T05:54:23.231Z,86.26
2022-11-02T05:55:25.243Z,85.99
2022-11-02T05:56:27.080Z,86.13
2022-11-02T05:57:28.994Z,85.80
2022-11-02T05:58:32.190Z,86.31
2022-11-02T05:59:33.935Z,86.36
2022-11-02T06:00:35.786Z,86.19
2022-11-02T06:01:37.992Z,86.91
2022-11-02T06:02:40.776Z,87.34
2022-11-02T06:03:42.666Z,87.27
2022-11-02T06:04:44.538Z,87.09
2022-11-02T06:05:46.706Z,87.04
2022-11-02T06:06:48.494Z,87.32
2022-11-02T06:07:50.361Z,87.28
2022-11-02T06:08:52.235Z,87.29
2022-11-02T06:09:54.040Z,87.00
2022-11-02T06:10:55.945Z,86.63
2022-11-02T06:11:57.881Z,87.11
2022-11-02T06:13:01.035Z,87.48
2022-11-02T06:14:04.116Z,87.11
2022-11-02T06:15:06.077Z,87.14
2022-11-02T06:16:11.827Z,87.25
2022-11-02T06:17:13.642Z,87.33
2022-11-02T06:18:15.487Z,87.28
2022-11-02T06:19:17.333Z,87.76
2022-11-02T06:20:19.799Z,87.64
2022-11-02T06:21:21.621Z,88.19
2022-11-02T06:22:23.498Z,88.21
2022-11-02T06:23:27.907Z,88.04
2022-11-02T06:24:29.807Z,87.64
2022-11-02T06:25:31.689Z,87.24
2022-11-02T06:26:33.461Z,87.59
2022-11-02T06:27:35.638Z,87.00
2022-11-02T06:28:37.563Z,87.33
2022-11-02T06:29:39.483Z,87.86
2022-11-02T06:30:43.232Z,87.61
2022-11-02T06:31:45.033Z,87.75
2022-11-02T06:32:47.911Z,87.99
2022-11-02T06:33:49.667Z,88.00
2022-11-02T06:34:51.619Z,87.54
2022-11-02T06:35:54.367Z,87.69
2022-11-02T06:36:56.175Z,88.04
2022-11-02T06:37:57.939Z,88.03
2022-11-02T06:38:59.802Z,87.84
2022-11-02T06:40:02.298Z,87.65
2022-11-02T06:41:06.849Z,87.94
2022-11-02T06:42:08.890Z,87.90
2022-11-02T06:43:16.677Z,87.94
2022-11-02T06:44:19.543Z,88.29
2022-11-02T06:45:21.430Z,87.87
2022-11-02T06:46:23.254Z,88.23
2022-11-02T06:47:25.099Z,88.45
2022-11-02T06:48:31.512Z,88.02
2022-11-02T06:49:35.171Z,88.36
2022-11-02T06:50:37.080Z,88.15
2022-11-02T06:51:39.037Z,88.46
2022-11-02T06:52:45.048Z,88.65
2022-11-02T06:53:46.953Z,88.80
2022-11-02T06:54:48.758Z,88.69
2022-11-02T06:55:54.568Z,88.28
2022-11-02T06:56:56.382Z,88.35
2022-11-02T06:57:58.228Z,88.83
2022-11-02T06:59:00.019Z,88.57
2022-11-02T07:00:05.325Z,88.35
2022-11-02T07:01:08.737Z,88.61
2022-11-02T07:02:10.844Z,88.67
2022-11-02T07:03:12.698Z,89.09
2022-11-02T07:04:14.556Z,88.97
2022-11-02T07:05:16.460Z,89.05
2022-11-02T07:06:18.388Z,89.64
2022-11-02T07:07:20.186Z,89.60
2022-11-02T07:08:22.566Z,89.14
2022-11-02T07:09:24.407Z,89.08
2022-11-02T07:10:27.087Z,89.41
2022-11-02T07:11:28.990Z,89.32
2022-11-02T07:12:32.826Z,88.72
2022-11-02T07:13:34.687Z,88.53
2022-11-02T07:14:36.444Z,88.47
2022-11-02T07:15:38.257Z,88.66
2022-11-02T07:16:40.147Z,88.27
2022-11-02T07:17:41.994Z,88.40
2022-11-02T07:18:43.845Z,88.64
2022-11-02T07:19:45.723Z,88.19
2022-11-02T07:20:47.608Z,88.81
2022-11-02T07:21:49.459Z,88.97
2022-11-02T07:22:55.542Z,88.88
2022-11-02T07:23:57.359Z,89.54
2022-11-02T07:24:59.202Z,89.37
2022-11-02T07:26:05.233Z,89.00
2022-11-02T07:27:07.230Z,89.67
2022-11-02T07:28:09.043Z,89.67
2022-11-02T07:29:10.859Z,89.11
2022-11-02T07:30:12.746Z,89.34
2022-11-02T07:31:14.638Z,89.02
2022-11-02T07:32:16.529Z,89.03
2022-11-02T07:33:18.288Z,88.65
2022-11-02T07:34:20.045Z,88.56
2022-11-02T07:35:22.235Z,89.42
2022-11-02T07:36:24.132Z,89.12
2022-11-02T07:37:25.976Z,90.17
2022-11-02T07:38:28.059Z,90.09
2022-11-02T07:39:29.875Z,90.37
2022-11-02T07:40:32.426Z,90.96
2022-11-02T07:41:34.574Z,90.54
2022-11-02T07:42:36.828Z,90.23
2022-11-02T07:43:41.476Z,90.13
2022-11-02T07:44:45.991Z,90.52
2022-11-02T07:45:47.843Z,90.70
2022-11-02T07:46:49.669Z,90.84
2022-11-02T07:47:52.677Z,91.05
2022-11-02T07:48:54.550Z,90.28
2022-11-02T07:49:59.344Z,90.91
2022-11-02T07:51:01.192Z,91.40
2022-11-02T07:52:03.025Z,91.48
2022-11-02T07:53:04.989Z,91.40
2022-11-02T07:54:07.382Z,90.89
2022-11-02T07:55:09.304Z,90.58
2022-11-02T07:56:11.695Z,90.96
2022-11-02T07:57:13.534Z,90.40
2022-11-02T07:58:15.397Z,90.72
2022-11-02T07:59:17.266Z,90.68
2022-11-02T08:00:19.170Z,90.18
2022-11-02T08:01:21.187Z,90.18
2022-11-02T08:02:23.123Z,90.59
2022-11-02T08:03:25.205Z,90.01
2022-11-02T08:04:27.036Z,90.34
2022-11-02T08:05:29.866Z,90.36
2022-11-02T08:06:31.817Z,90.37
2022-11-02T08:07:33.622Z,90.02
2022-11-02T08:08:37.024Z,89.94
2022-11-02T08:09:39.198Z,89.50
2022-11-02T08:10:41.407Z,89.61
2022-11-02T08:11:43.281Z,90.36
2022-11-02T08:12:45.115Z,90.21
2022-11-02T08:13:47.013Z,90.02
2022-11-02T08:14:49.328Z,89.85
2022-11-02T08:15:51.574Z,89.67
2022-11-02T08:16:53.412Z,89.73
2022-11-02T08:18:02.985Z,89.95
2022-11-02T08:19:05.343Z,89.85
2022-11-02T08:20:07.824Z,89.96
2022-11-02T08:21:09.760Z,89.73
2022-11-02T08:22:11.623Z,89.73
2022-11-02T08:23:14.116Z,89.15
2022-11-02T08:24:15.896Z,89.00
2022-11-02T08:25:17.774Z,89.37
2022-11-02T08:26:19.525Z,89.05
2022-11-02T08:27:21.283Z,89.15
2022-11-02T08:28:24.414Z,88.93
2022-11-02T08:29:26.681Z,88.49
2022-11-02T08:30:29.625Z,88.73
2022-11-02T08:31:31.420Z,88.77
2022-11-02T08:32:33.227Z,88.16
2022-11-02T08:33:35.152Z,88.13
2022-11-02T08:34:36.995Z,88.46
2022-11-02T08:35:39.447Z,88.85
2022-11-02T08:36:41.244Z,88.45
2022-11-02T08:37:43.359Z,88.14
2022-11-02T08:38:45.685Z,88.05
2022-11-02T08:39:48.612Z,87.88
2022-11-02T08:40:50.344Z,87.68
2022-11-02T08:41:52.290Z,87.69
2022-11-02T08:42:58.068Z,87.56
2022-11-02T08:43:59.845Z,87.58
2022-11-02T08:45:01.807Z,87.46
2022-11-02T08:46:19.663Z,87.37
2022-11-02T08:47:22.058Z,87.51
2022-11-02T08:48:23.957Z,88.10
2022-11-02T08:49:25.801Z,87.67
2022-11-02T08:50:29.662Z,87.63
2022-11-02T08:51:31.542Z,87.66
2022-11-02T08:52:40.730Z,87.69
2022-11-02T08:53:47.085Z,87.63
2022-11-02T08:54:52.160Z,87.51
2022-11-02T08:55:55.727Z,87.64
2022-11-02T08:56:57.505Z,86.96
2022-11-02T08:58:00.101Z,86.84
2022-11-02T08:59:01.910Z,86.78
2022-11-02T09:00:03.742Z,86.83
2022-11-02T09:01:05.838Z,86.33
2022-11-02T09:02:09.272Z,86.65
2022-11-02T09:03:16.067Z,86.38
2022-11-02T09:04:18.030Z,86.58
2022-11-02T09:05:19.761Z,86.55
2022-11-02T09:06:21.645Z,86.24
2022-11-02T09:07:23.473Z,86.37
2022-11-02T09:08:25.997Z,86.50
2022-11-02T09:09:27.820Z,86.49
2022-11-02T09:10:30.828Z,86.43
2022-11-02T09:11:32.715Z,86.26
2022-11-02T09:12:34.551Z,86.31
2022-11-02T09:13:37.942Z,86.29
2022-11-02T09:14:39.902Z,86.03
2022-11-02T09:15:42.340Z,86.02
2022-11-02T09:16:44.188Z,85.90
2022-11-02T09:17:49.786Z,85.80
2022-11-02T09:18:52.733Z,85.58
2022-11-02T09:19:54.505Z,85.61
2022-11-02T09:20:56.870Z,85.62
2022-11-02T09:22:00.164Z,85.24
2022-11-02T09:23:04.376Z,85.00
2022-11-02T09:24:06.421Z,85.19
2022-11-02T09:25:08.608Z,85.34
2022-11-02T09:26:10.393Z,85.03
2022-11-02T09:27:12.265Z,85.10
2022-11-02T09:28:15.767Z,84.69
2022-11-02T09:29:18.860Z,84.93
2022-11-02T09:30:21.121Z,84.95
2022-11-02T09:31:23.091Z,85.21
2022-11-02T09:32:24.879Z,85.28
2022-11-02T09:33:26.914Z,85.48
2022-11-02T09:34:28.855Z,85.62
2022-11-02T09:35:35.536Z,85.79
2022-11-02T09:36:37.293Z,85.51
2022-11-02T09:37:39.107Z,85.49
2022-11-02T09:38:40.895Z,85.29
2022-11-02T09:39:42.775Z,85.05
2022-11-02T09:41:01.915Z,85.17
2022-11-02T09:42:27.102Z,85.03
2022-11-02T09:43:37.537Z,84.82
2022-11-02T09:44:48.192Z,84.69
2022-11-02T09:45:58.592Z,84.57
2022-11-02T09:47:55.711Z,84.71
2022-11-02T09:48:30.571Z,84.64
2022-11-02T09:49:33.137Z,84.58
2022-11-02T09:50:41.699Z,84.27
2022-11-02T09:51:49.078Z,84.44
2022-11-02T09:52:57.458Z,84.38
2022-11-02T09:54:05.359Z,84.09
2022-11-02T09:55:13.039Z,84.21
2022-11-02T09:56:17.550Z,84.14
2022-11-02T09:57:30.526Z,84.72
2022-11-02T09:58:41.070Z,85.04
2022-11-02T09:59:43.030Z,84.13
2022-11-02T10:00:48.488Z,83.57
2022-11-02T10:02:09.102Z,83.37
2022-11-02T10:03:27.594Z,83.20
2022-11-02T10:04:48.062Z,82.99
2022-11-02T10:05:55.794Z,83.06
2022-11-02T10:07:16.211Z,83.00
2022-11-02T10:08:25.138Z,82.60
2022-11-02T10:09:35.883Z,82.80
2022-11-02T10:10:39.232Z,82.36
2022-11-02T10:11:41.089Z,82.20
2022-11-02T10:12:43.739Z,82.06
2022-11-02T10:13:56.864Z,81.60
2022-11-02T10:14:59.081Z,81.58
2022-11-02T10:16:04.333Z,81.15
2022-11-02T10:17:32.523Z,81.28
2022-11-02T10:18:37.344Z,82.26
2022-11-02T10:19:41.299Z,81.33
2022-11-02T10:20:47.228Z,80.41
2022-11-02T10:21:52.347Z,80.37
2022-11-02T10:22:57.598Z,81.50
2022-11-02T10:24:02.453Z,81.80
2022-11-02T10:25:05.899Z,81.51
2022-11-02T10:26:13.078Z,81.64
2022-11-02T10:27:26.674Z,81.28
2022-11-02T10:28:36.623Z,80.86
2022-11-02T10:29:45.528Z,80.60
2022-11-02T10:30:47.372Z,79.74
2022-11-02T10:31:50.999Z,79.64
2022-11-02T10:32:55.246Z,79.06
2022-11-02T10:33:58.391Z,79.36
2022-11-02T10:35:25.489Z,79.29
2022-11-02T10:36:26.584Z,79.23
2022-11-02T10:37:43.769Z,79.27
2022-11-02T10:39:00.962Z,78.91
2022-11-02T10:40:08.962Z,78.64
2022-11-02T10:41:29.561Z,78.18
2022-11-02T10:42:50.395Z,78.56
2022-11-02T10:43:58.165Z,78.57
2022-11-02T10:45:15.308Z,78.09
2022-11-02T10:46:17.083Z,78.36
2022-11-02T10:47:30.529Z,78.32
2022-11-02T10:48:42.734Z,77.94
2022-11-02T10:49:44.533Z,77.87
2022-11-02T10:50:46.313Z,77.41
2022-11-02T10:51:48.113Z,77.91
2022-11-02T10:52:49.847Z,77.70
2022-11-02T10:53:52.759Z,78.05
2022-11-02T10:54:54.938Z,77.77
2022-11-02T10:55:59.573Z,78.08
2022-11-02T10:57:09.645Z,77.99
2022-11-02T10:58:16.043Z,78.09
2022-11-02T10:59:24.127Z,78.05
2022-11-02T11:00:28.090Z,77.79
2022-11-02T11:01:32.344Z,77.33
2022-11-02T11:02:34.200Z,77.42
2022-11-02T11:03:53.037Z,77.59
2022-11-02T11:05:00.022Z,77.08
2022-11-02T11:06:04.954Z,76.84
2022-11-02T11:07:08.268Z,76.72
2022-11-02T11:08:28.315Z,76.62
2022-11-02T11:09:32.958Z,76.38
2022-11-02T11:10:38.302Z,76.55
2022-11-02T11:11:40.154Z,76.05
2022-11-02T11:12:43.414Z,76.38
2022-11-02T11:15:48.179Z,76.41
2022-11-02T11:19:52.550Z,75.92
2022-11-02T11:20:56.244Z,76.09
2022-11-02T11:21:58.147Z,75.62
2022-11-02T11:23:15.901Z,75.70
2022-11-02T11:24:23.671Z,75.05
2022-11-02T11:25:28.272Z,75.64
2022-11-02T11:26:31.628Z,75.83
2022-11-02T11:27:44.256Z,75.32
2022-11-02T11:28:56.156Z,75.71
2022-11-02T11:29:59.189Z,75.37
2022-11-02T11:31:09.058Z,75.01
2022-11-02T11:32:19.450Z,74.78
2022-11-02T11:33:21.915Z,74.49
2022-11-02T11:34:26.097Z,74.06
2022-11-02T11:35:35.532Z,73.96
2022-11-02T11:36:37.357Z,73.07
2022-11-02T11:37:47.744Z,72.67
2022-11-02T11:38:50.810Z,72.18
2022-11-02T11:40:00.666Z,72.40
2022-11-02T11:41:02.832Z,73.18
2022-11-02T11:42:05.782Z,73.07
2022-11-02T11:43:13.637Z,73.22
2022-11-02T11:44:16.254Z,72.46
2022-11-02T11:45:20.951Z,72.57
2022-11-02T11:46:23.317Z,71.35
2022-11-02T11:47:45.383Z,71.12
2022-11-02T11:48:49.698Z,70.57
2022-11-02T11:50:09.194Z,70.14
2022-11-02T11:51:25.554Z,70.32
2022-11-02T11:52:32.129Z,69.61
2022-11-02T11:53:35.760Z,70.02
2022-11-02T11:54:38.978Z,70.19
2022-11-02T11:55:51.582Z,70.62
2022-11-02T11:56:55.214Z,70.29
2022-11-02T11:58:15.562Z,69.73
2022-11-02T11:59:21.862Z,69.01
2022-11-02T12:00:29.973Z,69.20
2022-11-02T12:01:41.300Z,68.65
2022-11-02T12:02:44.895Z,69.14
2022-11-02T12:03:52.002Z,68.85
2022-11-02T12:05:01.750Z,68.80
2022-11-02T12:06:22.138Z,67.21
2022-11-02T12:07:26.929Z,67.65
2022-11-02T12:08:45.661Z,67.64
2022-11-02T12:09:57.157Z,68.51
2022-11-02T12:11:18.771Z,68.51
2022-11-02T12:12:41.244Z,69.37
2022-11-02T12:13:55.979Z,69.67
2022-11-02T12:15:16.437Z,69.08
2022-11-02T12:16:30.277Z,69.70
2022-11-02T12:17:37.851Z,69.96
2022-11-02T12:19:00.474Z,70.34
2022-11-02T12:20:20.516Z,69.59
2022-11-02T12:21:22.387Z,69.87
2022-11-02T12:22:30.501Z,69.54
2022-11-02T12:23:32.251Z,69.68
2022-11-02T12:24:43.662Z,69.86
2022-11-02T12:25:54.396Z,69.71
2022-11-02T12:27:08.294Z,69.10
2022-11-02T12:28:28.896Z,68.89
2022-11-02T12:29:37.051Z,66.78
2022-11-02T12:30:50.439Z,67.07
2022-11-02T12:32:01.510Z,68.10
2022-11-02T12:33:17.985Z,67.58
2022-11-02T12:34:38.566Z,68.17
2022-11-02T12:35:49.309Z,67.46
2022-11-02T12:37:38.630Z,67.57
2022-11-02T12:38:40.091Z,67.88
2022-11-02T12:39:54.745Z,67.98
2022-11-02T12:40:59.354Z,68.33
2022-11-02T12:42:05.979Z,69.00
2022-11-02T12:43:07.934Z,68.81
2022-11-02T12:44:17.938Z,69.00
2022-11-02T12:45:32.032Z,69.25
2022-11-02T12:46:42.279Z,69.07
2022-11-02T12:48:05.594Z,69.51
2022-11-02T12:49:17.201Z,69.38
2022-11-02T12:50:24.138Z,69.64
2022-11-02T12:51:30.954Z,69.92
2022-11-02T12:52:42.848Z,70.19
2022-11-02T12:54:01.827Z,70.03
2022-11-02T12:55:05.327Z,69.12
2022-11-02T12:56:09.202Z,69.12
2022-11-02T12:57:13.510Z,69.70
2022-11-02T12:58:21.919Z,69.85
2022-11-02T12:59:28.891Z,70.18
2022-11-02T13:00:32.445Z,69.92
2022-11-02T13:01:43.330Z,69.67
2022-11-02T13:02:54.473Z,70.21
2022-11-02T13:03:59.239Z,70.58
2022-11-02T13:05:04.609Z,70.68
2022-11-02T13:06:09.138Z,70.27
2022-11-02T13:07:15.314Z,69.86
2022-11-02T13:08:20.260Z,70.20
2022-11-02T13:09:26.498Z,70.07
2022-11-02T13:10:36.423Z,70.08
2022-11-02T13:11:41.427Z,69.95
2022-11-02T13:12:44.242Z,69.28
2022-11-02T13:13:49.007Z,69.50
2022-11-02T13:14:52.531Z,69.83
2022-11-02T13:15:55.207Z,69.18
2022-11-02T13:17:03.599Z,69.27
2022-11-02T13:18:30.443Z,69.69
2022-11-02T13:19:39.187Z,68.51
2022-11-02T13:20:51.192Z,69.38
2022-11-02T13:21:56.675Z,69.76
2022-11-02T13:23:03.537Z,69.36
2022-11-02T13:24:07.001Z,69.40
2022-11-02T13:25:20.876Z,69.05
2022-11-02T13:26:30.211Z,68.88
2022-11-02T13:27:36.269Z,69.02
2022-11-02T13:28:44.129Z,69.00
2022-11-02T13:29:47.922Z,69.76
2022-11-02T13:30:49.864Z,69.64
2022-11-02T13:32:11.446Z,69.66
2022-11-02T13:33:23.891Z,69.75
2022-11-02T13:34:33.671Z,69.82
2022-11-02T13:35:36.523Z,69.39
2022-11-02T13:36:39.478Z,69.40
2022-11-02T13:37:44.232Z,68.56
2022-11-02T13:39:00.584Z,68.99
2022-11-02T13:40:08.732Z,69.22
2022-11-02T13:41:10.537Z,69.85
2022-11-02T13:42:18.571Z,69.56
2022-11-02T13:43:23.449Z,69.46
2022-11-02T13:44:28.451Z,69.50
2022-11-02T13:46:41.822Z,68.75
2022-11-02T13:47:49.839Z,68.64
2022-11-02T13:48:58.647Z,68.92
2022-11-02T13:50:02.915Z,68.76
2022-11-02T13:51:07.274Z,69.37
2022-11-02T13:52:15.242Z,68.74
2022-11-02T13:53:43.531Z,68.43
2022-11-02T13:54:51.369Z,68.94
2022-11-02T13:55:59.495Z,68.25
2022-11-02T13:57:03.168Z,68.46
2022-11-02T13:58:06.021Z,68.55
2022-11-02T13:59:09.365Z,69.17
2022-11-02T14:00:23.415Z,68.47
2022-11-02T14:01:26.232Z,68.93
2022-11-02T14:02:30.923Z,69.12
2022-11-02T14:03:48.355Z,68.88
2022-11-02T14:04:50.639Z,68.81
2022-11-02T14:05:59.734Z,68.59
2022-11-02T14:07:04.239Z,68.55
2022-11-02T14:08:09.306Z,69.04
2022-11-02T14:09:20.855Z,69.06
2022-11-02T14:10:22.689Z,68.99
2022-11-02T14:11:26.485Z,69.16